Time;durP1;ratioP1;P1;durP2;ratioP2;P2;SDS_P1;SDS_P2;PMS_P1;PMS_P2;Temp;Humidity;BMP_temperature;BMP_pressure;BME280_temperature;BME280_humidity;BME280_pressure;Samples;Min_cycle;Max_cycle;Signal;HPM_P1;HPM_P2
2023/05/16 00:02:18;;;;;;;13.30;12.07;;;13.00;99.90;;;;;;4973888;28;20219;-74
2023/05/16 00:04:44;;;;;;;11.97;10.80;;;13.00;99.90;;;;;;4979070;28;20188;-74
2023/05/16 00:07:10;;;;;;;13.20;12.10;;;12.90;99.90;;;;;;4968572;28;20527;-74
2023/05/16 00:09:36;;;;;;;14.03;12.70;;;12.90;99.90;;;;;;4975700;28;20902;-74
2023/05/16 00:12:01;;;;;;;14.00;12.70;;;12.80;99.90;;;;;;4973381;28;20184;-74
2023/05/16 00:14:27;;;;;;;13.50;12.20;;;12.80;99.90;;;;;;4973870;28;20219;-74
2023/05/16 00:16:53;;;;;;;13.47;12.23;;;12.80;99.90;;;;;;4973345;28;20208;-74
2023/05/16 00:19:19;;;;;;;12.67;11.47;;;12.90;99.90;;;;;;4972428;28;20502;-74
2023/05/16 00:21:45;;;;;;;11.97;9.90;;;13.00;99.90;;;;;;4974165;28;20176;-74
2023/05/16 00:24:10;;;;;;;11.77;10.77;;;13.20;99.90;;;;;;4973182;28;20231;-74
2023/05/16 00:26:36;;;;;;;11.90;9.30;;;13.30;99.90;;;;;;4973451;28;20191;-74
2023/05/16 00:29:01;;;;;;;12.27;11.17;;;13.20;99.90;;;;;;4970705;28;20238;-74
2023/05/16 00:31:27;;;;;;;16.43;14.83;;;13.20;99.90;;;;;;4969988;28;20179;-73
2023/05/16 00:33:53;;;;;;;19.33;17.40;;;13.00;99.90;;;;;;4975610;28;20215;-74
2023/05/16 00:36:20;;;;;;;18.77;16.87;;;12.90;99.90;;;;;;4972651;28;20276;-74
2023/05/16 00:38:45;;;;;;;18.40;16.60;;;13.00;99.90;;;;;;4973551;28;20490;-74
2023/05/16 00:41:11;;;;;;;20.43;18.40;;;13.10;99.90;;;;;;4973575;28;20436;-74
2023/05/16 00:43:38;;;;;;;19.50;17.60;;;13.20;99.90;;;;;;4972125;28;20540;-74
2023/05/16 00:46:04;;;;;;;18.07;16.37;;;13.10;99.90;;;;;;4976377;28;20200;-74
2023/05/16 00:48:29;;;;;;;21.17;19.03;;;13.10;99.90;;;;;;4972969;28;20463;-74
2023/05/16 00:50:55;;;;;;;22.83;20.63;;;13.00;99.90;;;;;;4986363;28;20180;-74
2023/05/16 00:53:22;;;;;;;21.53;19.53;;;13.00;99.90;;;;;;4982600;28;20282;-74
2023/05/16 00:55:48;;;;;;;21.10;19.00;;;13.00;99.90;;;;;;4974114;28;20525;-74
2023/05/16 00:58:14;;;;;;;21.43;19.13;;;13.00;99.90;;;;;;4973060;28;20522;-73
2023/05/16 01:00:41;;;;;;;21.70;19.47;;;13.00;99.90;;;;;;4973680;28;20187;-74
2023/05/16 01:03:06;;;;;;;22.80;19.87;;;12.90;99.90;;;;;;4972902;28;20431;-74
2023/05/16 01:05:32;;;;;;;23.03;20.63;;;12.90;99.90;;;;;;4969948;28;20815;-74
2023/05/16 01:07:58;;;;;;;25.13;22.53;;;12.90;99.90;;;;;;4971851;28;20199;-74
2023/05/16 01:10:28;;;;;;;24.57;22.00;;;12.90;99.90;;;;;;4980270;28;20459;-74
2023/05/16 01:13:12;;;;;;;21.23;18.90;;;12.90;99.90;;;;;;4986507;28;20187;-74
2023/05/16 01:16:08;;;;;;;23.90;21.50;;;12.80;99.90;;;;;;4983589;28;21032;-74
2023/05/16 01:18:46;;;;;;;26.80;23.90;;;12.80;99.90;;;;;;4979947;28;20502;-74
2023/05/16 01:21:21;;;;;;;26.20;23.13;;;12.80;99.90;;;;;;4971037;28;20439;-74
2023/05/16 01:24:13;;;;;;;24.63;21.10;;;12.80;99.90;;;;;;4973139;28;20438;-74
2023/05/16 01:26:40;;;;;;;23.63;21.13;;;12.90;99.90;;;;;;4980136;28;20466;-74
2023/05/16 01:29:06;;;;;;;23.67;21.27;;;13.00;99.90;;;;;;4970453;28;20506;-74
2023/05/16 01:31:32;;;;;;;23.70;21.40;;;13.00;99.90;;;;;;4971320;28;20454;-74
2023/05/16 01:33:58;;;;;;;26.50;22.80;;;12.80;99.90;;;;;;4971862;28;20439;-73
2023/05/16 01:36:28;;;;;;;27.40;24.57;;;12.80;99.90;;;;;;4971004;28;20204;-74
2023/05/16 01:39:18;;;;;;;25.90;21.60;;;12.90;99.90;;;;;;4966857;28;20741;-74
2023/05/16 01:42:00;;;;;;;24.47;21.93;;;12.90;99.90;;;;;;4969645;28;20423;-74
2023/05/16 01:44:35;;;;;;;23.43;21.03;;;12.90;99.90;;;;;;4952050;28;20420;-74
2023/05/16 01:47:05;;;;;;;26.47;23.60;;;12.90;99.90;;;;;;4970759;28;20488;-74
2023/05/16 01:49:39;;;;;;;25.40;22.80;;;12.90;99.90;;;;;;4969126;28;20517;-74
2023/05/16 01:52:09;;;;;;;28.50;25.50;;;12.90;99.90;;;;;;4971673;28;20777;-74
2023/05/16 01:54:38;;;;;;;31.37;26.43;;;12.80;99.90;;;;;;4971464;28;20439;-74
2023/05/16 01:57:07;;;;;;;29.13;26.13;;;12.80;99.90;;;;;;4971329;28;20463;-74
2023/05/16 01:59:32;;;;;;;29.60;26.63;;;12.70;99.90;;;;;;4970714;28;20482;-74
2023/05/16 02:01:58;;;;;;;29.80;26.57;;;12.70;99.90;;;;;;4976935;28;20800;-74
2023/05/16 02:04:24;;;;;;;30.87;25.93;;;12.50;99.90;;;;;;4984562;28;20168;-74
2023/05/16 02:06:50;;;;;;;27.20;24.10;;;12.50;99.90;;;;;;4977523;28;20263;-74
2023/05/16 02:09:16;;;;;;;32.60;27.70;;;12.50;99.90;;;;;;4974789;28;20853;-74
2023/05/16 02:11:42;;;;;;;34.90;28.60;;;12.40;99.90;;;;;;4971748;28;20466;-74
2023/05/16 02:14:08;;;;;;;33.13;27.37;;;12.30;99.90;;;;;;4969707;28;20188;-74
2023/05/16 02:16:34;;;;;;;32.60;26.80;;;12.30;99.90;;;;;;4971112;28;20461;-74
2023/05/16 02:18:59;;;;;;;37.30;30.10;;;12.40;99.90;;;;;;4970784;28;20471;-73
2023/05/16 02:21:25;;;;;;;34.00;28.03;;;12.40;99.90;;;;;;4970559;28;20191;-74
2023/05/16 02:23:50;;;;;;;36.03;29.97;;;12.50;99.90;;;;;;4972511;28;20534;-74
2023/05/16 02:26:16;;;;;;;32.33;28.80;;;12.40;99.90;;;;;;4970491;28;20186;-74
2023/05/16 02:28:41;;;;;;;33.20;29.50;;;12.40;99.90;;;;;;4971489;28;20201;-74
2023/05/16 02:31:07;;;;;;;37.30;30.77;;;12.40;99.90;;;;;;4971339;28;20192;-74
2023/05/16 02:33:33;;;;;;;38.20;31.93;;;12.50;99.90;;;;;;4969299;28;20564;-74
2023/05/16 02:35:59;;;;;;;35.50;29.23;;;12.60;99.90;;;;;;4971797;28;20207;-73
2023/05/16 02:38:24;;;;;;;35.07;29.70;;;12.60;99.90;;;;;;4971449;28;20455;-74
2023/05/16 02:40:50;;;;;;;34.67;30.87;;;12.60;99.90;;;;;;4971210;28;20203;-74
2023/05/16 02:43:15;;;;;;;37.80;30.47;;;12.60;99.90;;;;;;4970247;28;20188;-74
2023/05/16 02:45:41;;;;;;;39.03;30.33;;;12.50;99.90;;;;;;4969516;28;20181;-74
2023/05/16 02:48:06;;;;;;;37.10;31.10;;;12.50;99.90;;;;;;4970136;28;20180;-74
2023/05/16 02:50:33;;;;;;;37.73;31.77;;;12.30;99.90;;;;;;4968977;28;20614;-74
2023/05/16 02:53:01;;;;;;;39.03;32.90;;;12.30;99.90;;;;;;4971343;28;20665;-74
2023/05/16 02:55:27;;;;;;;38.37;30.23;;;12.30;99.90;;;;;;4970860;28;20436;-74
2023/05/16 02:57:52;;;;;;;39.87;30.90;;;12.30;99.90;;;;;;4971334;28;20972;-74
2023/05/16 03:00:18;;;;;;;41.53;32.40;;;12.50;99.90;;;;;;4968516;28;20462;-74
2023/05/16 03:02:44;;;;;;;37.87;30.67;;;12.50;99.90;;;;;;4968736;28;20298;-74
2023/05/16 03:05:10;;;;;;;42.33;32.80;;;12.50;99.90;;;;;;4970932;28;20184;-73
2023/05/16 03:07:36;;;;;;;40.07;33.30;;;12.30;99.90;;;;;;4970160;28;20278;-74
2023/05/16 03:10:02;;;;;;;42.47;31.60;;;12.40;99.90;;;;;;4968915;28;20463;-74
2023/05/16 03:12:28;;;;;;;36.77;29.93;;;12.40;99.90;;;;;;4970012;28;20448;-74
2023/05/16 03:14:53;;;;;;;39.63;30.20;;;12.40;99.90;;;;;;4969219;28;20436;-73
2023/05/16 03:17:19;;;;;;;38.10;30.90;;;12.40;99.90;;;;;;4971084;28;20195;-74
2023/05/16 03:19:45;;;;;;;34.87;29.80;;;12.40;99.90;;;;;;4967392;28;20204;-73
2023/05/16 03:22:10;;;;;;;40.47;33.50;;;12.40;99.90;;;;;;4971875;28;20212;-73
2023/05/16 03:24:36;;;;;;;45.50;33.47;;;12.40;99.90;;;;;;4970475;28;20184;-74
2023/05/16 03:27:03;;;;;;;40.10;30.60;;;12.50;99.90;;;;;;4969935;28;20188;-74
2023/05/16 03:29:29;;;;;;;43.10;32.73;;;12.50;99.90;;;;;;4969452;28;20204;-74
2023/05/16 03:31:55;;;;;;;39.87;31.63;;;12.40;99.90;;;;;;4969269;28;20804;-74
2023/05/16 03:34:20;;;;;;;41.97;31.70;;;12.30;99.90;;;;;;4970087;28;20445;-74
2023/05/16 03:36:50;;;;;;;42.67;34.90;;;12.30;99.90;;;;;;4970176;28;20695;-74
2023/05/16 03:39:16;;;;;;;39.13;31.30;;;12.20;99.90;;;;;;4970745;28;20291;-74
2023/05/16 03:41:42;;;;;;;45.57;34.37;;;12.00;99.90;;;;;;4970377;28;20522;-73
2023/05/16 03:44:07;;;;;;;44.07;34.80;;;11.90;99.90;;;;;;4971151;28;20208;-73
2023/05/16 03:46:34;;;;;;;47.73;36.23;;;11.90;99.90;;;;;;4960791;28;20588;-73
2023/05/16 03:49:00;;;;;;;56.47;35.13;;;11.80;99.90;;;;;;4982955;28;20215;-74
2023/05/16 03:51:25;;;;;;;49.47;35.90;;;11.80;99.90;;;;;;4978286;28;20451;-73
2023/05/16 03:53:51;;;;;;;50.27;36.43;;;11.80;99.90;;;;;;4971061;28;20184;-73
2023/05/16 03:56:16;;;;;;;55.43;36.43;;;11.70;99.90;;;;;;4970418;28;20234;-73
2023/05/16 03:58:42;;;;;;;50.07;37.77;;;11.70;99.90;;;;;;4973685;28;20202;-74
2023/05/16 04:01:07;;;;;;;50.10;37.13;;;11.80;99.90;;;;;;4983266;28;20646;-74
2023/05/16 04:03:33;;;;;;;49.50;36.07;;;11.90;99.90;;;;;;4981910;28;20171;-74
2023/05/16 04:05:58;;;;;;;48.63;35.33;;;11.80;99.90;;;;;;4983382;28;20184;-73
2023/05/16 04:08:24;;;;;;;49.97;35.47;;;11.90;99.90;;;;;;4986181;28;20692;-73
2023/05/16 04:10:50;;;;;;;49.70;35.77;;;11.90;99.90;;;;;;4981061;28;20172;-74
2023/05/16 04:13:16;;;;;;;50.43;35.47;;;11.90;99.90;;;;;;4974905;28;20526;-73
2023/05/16 04:15:41;;;;;;;51.37;37.37;;;12.00;99.90;;;;;;4988444;28;20717;-73
2023/05/16 04:18:08;;;;;;;49.43;36.57;;;12.00;99.90;;;;;;4981798;28;20200;-73
2023/05/16 04:20:34;;;;;;;48.27;35.40;;;12.00;99.90;;;;;;4973915;28;20677;-73
2023/05/16 04:22:59;;;;;;;48.93;36.40;;;12.00;99.90;;;;;;4974243;28;20431;-73
2023/05/16 04:25:25;;;;;;;51.17;37.67;;;12.10;99.90;;;;;;4973287;28;20443;-73
2023/05/16 04:27:51;;;;;;;50.20;37.47;;;12.10;99.90;;;;;;4970538;28;20177;-73
2023/05/16 04:30:17;;;;;;;47.57;36.33;;;12.20;99.90;;;;;;4971855;28;20234;-73
2023/05/16 04:32:42;;;;;;;50.13;37.87;;;12.10;99.90;;;;;;4972479;28;20475;-73
2023/05/16 04:35:08;;;;;;;52.60;37.30;;;12.10;99.90;;;;;;4970910;28;20240;-73
2023/05/16 04:37:34;;;;;;;58.73;40.13;;;12.20;99.90;;;;;;4981696;28;20207;-74
2023/05/16 04:40:00;;;;;;;58.83;38.17;;;12.30;99.90;;;;;;4971383;28;20223;-73
2023/05/16 04:42:26;;;;;;;49.33;36.90;;;12.30;99.90;;;;;;4973749;28;20855;-74
2023/05/16 04:44:51;;;;;;;48.57;35.03;;;12.40;99.90;;;;;;4972840;28;20259;-73
2023/05/16 04:47:17;;;;;;;52.07;38.03;;;12.50;99.90;;;;;;4973275;28;20275;-73
2023/05/16 04:49:42;;;;;;;51.17;39.50;;;12.40;99.90;;;;;;4970793;28;20210;-73
2023/05/16 04:52:08;;;;;;;54.80;37.90;;;12.40;99.90;;;;;;4972354;28;20638;-73
2023/05/16 04:54:34;;;;;;;51.93;37.67;;;12.50;99.90;;;;;;4972434;28;20221;-73
2023/05/16 04:57:00;;;;;;;48.67;39.40;;;12.60;99.90;;;;;;4971920;28;20537;-73
2023/05/16 04:59:25;;;;;;;49.17;35.80;;;12.50;99.90;;;;;;4972975;28;20677;-73
2023/05/16 05:01:51;;;;;;;47.50;35.60;;;12.60;99.90;;;;;;4971574;28;20482;-73
2023/05/16 05:04:16;;;;;;;53.27;36.57;;;12.70;99.90;;;;;;4971240;28;20223;-73
2023/05/16 05:06:42;;;;;;;47.13;36.20;;;12.60;99.90;;;;;;4969493;28;20678;-73
2023/05/16 05:09:08;;;;;;;51.70;38.50;;;12.60;99.90;;;;;;4971459;28;20231;-73
2023/05/16 05:11:34;;;;;;;48.20;36.00;;;12.60;99.90;;;;;;4967533;28;20334;-74
2023/05/16 05:14:00;;;;;;;50.10;38.30;;;12.50;99.90;;;;;;4972189;28;20436;-73
2023/05/16 05:16:25;;;;;;;50.37;37.00;;;12.60;99.90;;;;;;4973114;28;20565;-73
2023/05/16 05:18:51;;;;;;;48.13;37.37;;;12.60;99.90;;;;;;4982129;28;20331;-73
2023/05/16 05:21:19;;;;;;;53.17;38.73;;;12.50;99.90;;;;;;4977577;28;20681;-73
2023/05/16 05:23:45;;;;;;;48.40;39.27;;;12.50;99.90;;;;;;4971750;28;20184;-73
2023/05/16 05:26:11;;;;;;;51.40;37.10;;;12.70;99.90;;;;;;4966725;28;20468;-73
2023/05/16 05:28:36;;;;;;;49.27;36.97;;;13.20;99.90;;;;;;4978663;28;20471;-73
2023/05/16 05:31:04;;;;;;;46.30;35.70;;;12.80;99.90;;;;;;4972798;28;20937;-73
2023/05/16 05:33:30;;;;;;;47.23;38.17;;;12.70;99.90;;;;;;4978693;28;20396;-73
2023/05/16 05:35:56;;;;;;;48.57;36.90;;;12.70;99.90;;;;;;4980074;28;20542;-73
2023/05/16 05:38:21;;;;;;;49.23;37.17;;;12.80;99.90;;;;;;4982027;28;20948;-73
2023/05/16 05:40:48;;;;;;;46.70;37.57;;;13.20;99.90;;;;;;4982419;28;20207;-73
2023/05/16 05:43:14;;;;;;;53.70;38.53;;;12.90;99.90;;;;;;4950306;28;20188;-73
2023/05/16 05:45:40;;;;;;;54.10;39.10;;;12.60;99.90;;;;;;4975392;28;20925;-73
2023/05/16 05:48:06;;;;;;;48.50;37.90;;;12.80;99.90;;;;;;4984139;28;20821;-73
2023/05/16 05:50:32;;;;;;;48.17;36.90;;;13.10;99.90;;;;;;4979535;28;20446;-73
2023/05/16 05:52:57;;;;;;;51.37;39.47;;;12.60;99.90;;;;;;4981875;28;20622;-73
2023/05/16 05:55:23;;;;;;;46.77;37.60;;;12.90;99.90;;;;;;4977412;28;20270;-73
2023/05/16 05:57:49;;;;;;;47.90;37.30;;;12.80;99.90;;;;;;4972275;28;20216;-73
2023/05/16 06:00:14;;;;;;;50.07;37.53;;;12.80;99.90;;;;;;4976459;28;20196;-73
2023/05/16 06:02:40;;;;;;;47.07;35.43;;;12.90;99.90;;;;;;4985260;28;20271;-73
2023/05/16 06:05:06;;;;;;;47.67;37.57;;;12.80;99.90;;;;;;4971362;28;20227;-73
2023/05/16 06:07:32;;;;;;;48.20;35.37;;;12.90;99.90;;;;;;4972231;28;20638;-73
2023/05/16 06:09:58;;;;;;;45.23;35.03;;;12.90;99.90;;;;;;4972476;28;20859;-73
2023/05/16 06:12:24;;;;;;;47.80;35.33;;;13.00;99.90;;;;;;4969685;28;20444;-73
2023/05/16 06:14:50;;;;;;;40.93;32.67;;;13.00;99.90;;;;;;4971765;28;20791;-73
2023/05/16 06:17:15;;;;;;;44.83;34.47;;;13.00;99.90;;;;;;4979254;28;20748;-75
2023/05/16 06:19:41;;;;;;;41.63;31.90;;;13.10;99.90;;;;;;4979042;28;20278;-74
2023/05/16 06:22:06;;;;;;;39.10;32.57;;;13.20;99.90;;;;;;4950574;28;20661;-74
2023/05/16 06:24:32;;;;;;;38.50;30.90;;;13.40;99.90;;;;;;4964586;28;20168;-74
2023/05/16 06:26:57;;;;;;;36.80;29.43;;;13.60;99.90;;;;;;4966964;28;20267;-74
2023/05/16 06:29:23;;;;;;;37.07;29.40;;;13.70;99.90;;;;;;4965617;28;20205;-74
2023/05/16 06:31:48;;;;;;;39.40;30.80;;;13.70;99.90;;;;;;4976591;28;20192;-74
2023/05/16 06:34:14;;;;;;;43.83;32.57;;;13.70;99.90;;;;;;4951469;28;20199;-74
2023/05/16 06:36:39;;;;;;;37.40;29.00;;;13.70;99.90;;;;;;4973476;28;20570;-74
2023/05/16 06:39:05;;;;;;;35.37;30.73;;;13.70;99.90;;;;;;4982962;28;20436;-74
2023/05/16 06:41:31;;;;;;;39.17;30.90;;;13.70;99.90;;;;;;4951827;28;20184;-78
2023/05/16 06:43:56;;;;;;;35.40;29.17;;;13.60;99.90;;;;;;4967338;28;20184;-77
2023/05/16 06:46:22;;;;;;;41.03;30.07;;;13.40;99.90;;;;;;4977325;28;20649;-78
2023/05/16 06:48:47;;;;;;;33.93;29.87;;;13.50;99.90;;;;;;4971915;28;20196;-78
2023/05/16 06:51:13;;;;;;;34.93;29.93;;;13.60;99.90;;;;;;4971099;28;20296;-78
2023/05/16 06:53:38;;;;;;;33.33;27.90;;;13.80;99.90;;;;;;4971408;28;20259;-77
2023/05/16 06:56:04;;;;;;;33.00;27.33;;;13.80;99.90;;;;;;4976373;28;20255;-77
2023/05/16 06:58:30;;;;;;;33.97;28.77;;;13.70;99.90;;;;;;4971744;28;20210;-77
2023/05/16 07:00:55;;;;;;;32.07;26.43;;;13.80;99.90;;;;;;4968787;28;20180;-77
2023/05/16 07:03:21;;;;;;;32.37;28.57;;;13.60;99.90;;;;;;4969571;28;20180;-77
2023/05/16 07:05:46;;;;;;;31.57;27.27;;;13.40;99.90;;;;;;4978431;28;20263;-78
2023/05/16 07:08:12;;;;;;;33.23;25.70;;;13.40;99.90;;;;;;4975208;28;20708;-77
2023/05/16 07:10:38;;;;;;;38.30;29.73;;;13.30;99.90;;;;;;4968665;28;20239;-77
2023/05/16 07:13:04;;;;;;;33.00;29.50;;;13.30;99.90;;;;;;4969837;28;20211;-77
2023/05/16 07:15:30;;;;;;;31.23;25.80;;;13.40;99.90;;;;;;4970987;28;20957;-77
2023/05/16 07:17:56;;;;;;;31.17;26.63;;;13.40;99.90;;;;;;4979533;28;20506;-77
2023/05/16 07:20:22;;;;;;;30.57;25.00;;;13.40;99.90;;;;;;4979934;28;20214;-77
2023/05/16 07:22:47;;;;;;;31.73;26.73;;;13.40;99.90;;;;;;4976511;28;20601;-77
2023/05/16 07:25:14;;;;;;;31.00;25.80;;;13.70;99.90;;;;;;4967309;28;20761;-77
2023/05/16 07:27:40;;;;;;;28.70;23.23;;;13.40;99.90;;;;;;4970068;28;20218;-78
2023/05/16 07:30:08;;;;;;;26.43;23.60;;;13.40;99.90;;;;;;4973912;28;20451;-78
2023/05/16 07:32:34;;;;;;;25.77;23.13;;;13.50;99.90;;;;;;4982626;28;20818;-78
2023/05/16 07:34:59;;;;;;;23.77;21.17;;;13.50;99.90;;;;;;4972143;28;20439;-78
2023/05/16 07:37:25;;;;;;;27.90;21.87;;;13.40;99.90;;;;;;4974260;28;20212;-77
2023/05/16 07:39:50;;;;;;;25.10;20.80;;;13.40;99.90;;;;;;4975292;28;20232;-77
2023/05/16 07:42:16;;;;;;;23.40;20.90;;;13.40;99.90;;;;;;4976347;28;20203;-78
2023/05/16 07:44:41;;;;;;;24.70;20.97;;;13.30;99.90;;;;;;4985964;28;20211;-78
2023/05/16 07:47:07;;;;;;;27.13;19.37;;;13.30;99.90;;;;;;4975420;28;20184;-77
2023/05/16 07:49:33;;;;;;;22.40;19.93;;;13.50;99.90;;;;;;4975034;28;20204;-78
2023/05/16 07:51:58;;;;;;;22.50;20.10;;;13.60;99.90;;;;;;4972296;28;20536;-77
2023/05/16 07:54:24;;;;;;;19.43;17.43;;;13.70;99.90;;;;;;4976863;28;20176;-77
2023/05/16 07:56:49;;;;;;;18.63;16.63;;;14.00;99.90;;;;;;4974925;28;20199;-78
2023/05/16 07:59:15;;;;;;;19.47;16.70;;;14.20;99.90;;;;;;4977611;28;20208;-78
2023/05/16 08:01:40;;;;;;;20.93;18.73;;;14.10;99.90;;;;;;4977908;28;20255;-78
2023/05/16 08:04:06;;;;;;;20.40;18.20;;;14.10;99.90;;;;;;4974064;28;20176;-78
2023/05/16 08:06:33;;;;;;;25.90;21.17;;;14.20;99.90;;;;;;4979887;28;20187;-78
2023/05/16 08:08:58;;;;;;;23.00;19.20;;;14.00;99.90;;;;;;4979932;28;20207;-78
2023/05/16 08:11:24;;;;;;;22.40;20.20;;;14.10;99.90;;;;;;4973301;28;20450;-78
2023/05/16 08:13:50;;;;;;;23.13;19.00;;;14.10;99.90;;;;;;4983884;28;20183;-75
2023/05/16 08:16:15;;;;;;;22.30;19.57;;;14.10;99.90;;;;;;4983074;28;20196;-77
2023/05/16 08:18:41;;;;;;;21.27;19.03;;;14.10;99.90;;;;;;4967327;28;20211;-75
2023/05/16 08:21:07;;;;;;;21.87;18.87;;;14.10;99.90;;;;;;4977298;28;20215;-74
2023/05/16 08:23:33;;;;;;;26.40;21.10;;;14.20;99.90;;;;;;4978557;28;20304;-74
2023/05/16 08:25:59;;;;;;;27.80;22.80;;;14.20;99.90;;;;;;4979872;28;20462;-74
2023/05/16 08:28:24;;;;;;;25.20;22.27;;;14.20;99.90;;;;;;4979247;28;20254;-74
2023/05/16 08:30:50;;;;;;;32.23;20.23;;;14.30;99.90;;;;;;4982105;28;20186;-74
2023/05/16 08:33:15;;;;;;;25.30;20.47;;;14.30;99.90;;;;;;4973837;28;20173;-74
2023/05/16 08:35:43;;;;;;;25.83;22.70;;;13.90;99.90;;;;;;4976619;28;20545;-75
2023/05/16 08:38:08;;;;;;;22.40;20.10;;;13.50;99.90;;;;;;4976045;28;20613;-75
2023/05/16 08:40:34;;;;;;;20.63;18.43;;;13.50;99.90;;;;;;4976044;28;20446;-74
2023/05/16 08:43:00;;;;;;;22.67;20.00;;;13.50;99.90;;;;;;4972811;28;20186;-74
2023/05/16 08:45:25;;;;;;;19.93;17.73;;;13.50;99.90;;;;;;4973639;28;20179;-74
2023/05/16 08:47:54;;;;;;;17.97;16.27;;;13.50;99.90;;;;;;4975625;28;20280;-74
2023/05/16 08:50:20;;;;;;;17.40;14.83;;;13.60;99.90;;;;;;4971186;28;20258;-75
2023/05/16 08:52:50;;;;;;;17.50;15.70;;;13.60;99.90;;;;;;4976916;28;20485;-75
2023/05/16 08:55:18;;;;;;;17.23;15.60;;;13.70;99.90;;;;;;4971243;28;20638;-74
2023/05/16 08:57:44;;;;;;;18.33;16.47;;;13.90;99.90;;;;;;4976549;28;20477;-75
2023/05/16 09:00:10;;;;;;;20.40;17.20;;;14.00;99.90;;;;;;4980970;28;20489;-73
2023/05/16 09:02:41;;;;;;;20.03;18.03;;;13.90;99.90;;;;;;4980383;28;20467;-73
2023/05/16 09:05:17;;;;;;;19.00;17.20;;;13.70;99.90;;;;;;4972288;28;20448;-73
2023/05/16 09:07:43;;;;;;;21.53;17.50;;;13.50;99.90;;;;;;4973994;28;20451;-74
2023/05/16 09:10:10;;;;;;;20.03;17.93;;;13.40;99.90;;;;;;4976888;28;20812;-74
2023/05/16 09:12:36;;;;;;;21.70;19.60;;;13.40;99.90;;;;;;4979775;28;20439;-74
2023/05/16 09:15:03;;;;;;;25.10;22.50;;;13.40;99.90;;;;;;4984088;28;20446;-74
2023/05/16 09:17:42;;;;;;;23.90;19.27;;;13.30;99.90;;;;;;4969748;28;20518;-74
2023/05/16 09:20:18;;;;;;;23.20;20.80;;;13.20;99.90;;;;;;4970516;28;20530;-75
2023/05/16 09:22:51;;;;;;;25.33;22.63;;;13.10;99.90;;;;;;4975360;28;20506;-74
2023/05/16 09:25:17;;;;;;;27.93;24.30;;;13.10;99.90;;;;;;4970317;28;20510;-75
2023/05/16 09:27:44;;;;;;;22.90;20.50;;;13.00;99.90;;;;;;4983007;28;20442;-74
2023/05/16 09:30:14;;;;;;;24.00;21.47;;;13.00;99.90;;;;;;4970265;28;20463;-74
2023/05/16 09:32:43;;;;;;;24.03;21.43;;;13.30;99.90;;;;;;4970320;28;20482;-74
2023/05/16 09:35:14;;;;;;;25.80;22.17;;;13.60;99.90;;;;;;4968651;28;20524;-75
2023/05/16 09:37:44;;;;;;;27.03;22.00;;;13.90;99.90;;;;;;4972423;28;20822;-74
2023/05/16 09:40:09;;;;;;;27.70;23.20;;;14.10;99.90;;;;;;4968488;28;20451;-74
2023/05/16 09:42:35;;;;;;;26.60;23.60;;;14.40;99.90;;;;;;4983592;28;20430;-74
2023/05/16 09:45:00;;;;;;;26.17;23.43;;;14.40;99.90;;;;;;4979946;28;20188;-74
2023/05/16 09:47:27;;;;;;;25.20;22.50;;;14.60;99.90;;;;;;4969818;28;20190;-74
2023/05/16 09:49:53;;;;;;;25.03;22.37;;;14.90;99.90;;;;;;4971488;28;20250;-74
2023/05/16 09:52:18;;;;;;;23.00;20.60;;;15.10;99.90;;;;;;4970985;28;20887;-74
2023/05/16 09:54:48;;;;;;;24.90;22.30;;;15.40;99.90;;;;;;4968381;28;20476;-74
2023/05/16 09:57:18;;;;;;;23.23;20.80;;;15.70;99.90;;;;;;4967802;28;20609;-71
2023/05/16 09:59:44;;;;;;;22.57;20.27;;;15.80;99.90;;;;;;4971971;28;20447;-71
2023/05/16 10:02:11;;;;;;;24.10;20.43;;;15.70;99.90;;;;;;4967046;28;20468;-70
2023/05/16 10:04:37;;;;;;;22.30;19.97;;;16.00;99.90;;;;;;4981642;28;20485;-71
2023/05/16 10:07:03;;;;;;;23.23;20.73;;;15.90;99.90;;;;;;4973637;28;20427;-71
2023/05/16 10:09:31;;;;;;;26.13;18.97;;;15.60;99.90;;;;;;4973594;28;20192;-68
2023/05/16 10:12:03;;;;;;;24.57;20.50;;;15.30;99.90;;;;;;4973574;28;20439;-71
2023/05/16 10:14:32;;;;;;;24.37;21.87;;;15.40;99.90;;;;;;4974037;28;20431;-68
2023/05/16 10:16:59;;;;;;;21.23;18.83;;;15.80;99.90;;;;;;4969173;28;20463;-70
2023/05/16 10:19:25;;;;;;;20.57;18.37;;;16.20;99.90;;;;;;4972552;28;20498;-70
2023/05/16 10:21:58;;;;;;;21.07;18.60;;;16.60;99.90;;;;;;4967381;28;20423;-68
2023/05/16 10:24:33;;;;;;;19.53;17.33;;;16.90;99.90;;;;;;4963671;28;20169;-68
2023/05/16 10:26:58;;;;;;;19.40;17.60;;;17.40;99.90;;;;;;4963069;28;20533;-70
2023/05/16 10:29:24;;;;;;;20.40;17.97;;;17.50;99.90;;;;;;4956433;28;21012;-70
2023/05/16 10:31:50;;;;;;;22.13;17.53;;;17.80;99.90;;;;;;4960627;28;20180;-71
2023/05/16 10:34:17;;;;;;;19.63;17.63;;;17.20;99.90;;;;;;4973606;28;20431;-70
2023/05/16 10:36:44;;;;;;;17.80;16.00;;;17.10;99.90;;;;;;4973635;28;20589;-71
2023/05/16 10:39:10;;;;;;;17.97;16.10;;;17.40;99.90;;;;;;4973280;28;20978;-71
2023/05/16 10:41:36;;;;;;;17.50;15.67;;;17.60;99.90;;;;;;4973383;28;21026;-71
2023/05/16 10:44:03;;;;;;;18.33;16.20;;;17.70;99.90;;;;;;4972553;28;20554;-71
2023/05/16 10:46:30;;;;;;;17.93;16.03;;;17.30;99.90;;;;;;4971568;28;20188;-71
2023/05/16 10:48:56;;;;;;;17.83;15.93;;;16.80;99.90;;;;;;4955718;28;20478;-72
2023/05/16 10:51:21;;;;;;;19.47;15.50;;;16.30;99.90;;;;;;4963529;28;20471;-73
2023/05/16 10:53:50;;;;;;;19.00;16.93;;;15.70;99.90;;;;;;4964909;28;20275;-69
2023/05/16 10:56:25;;;;;;;22.23;18.17;;;15.10;99.90;;;;;;4970440;28;20188;-73
2023/05/16 10:58:52;;;;;;;23.90;17.87;;;15.00;99.90;;;;;;4970719;28;20670;-70
2023/05/16 11:01:24;;;;;;;22.30;18.73;;;14.60;99.90;;;;;;4976405;28;20431;-74
2023/05/16 11:03:59;;;;;;;19.67;17.57;;;14.30;99.90;;;;;;4969512;28;20446;-69
2023/05/16 11:06:31;;;;;;;21.67;18.80;;;14.10;99.90;;;;;;4969659;28;21233;-69
2023/05/16 11:09:09;;;;;;;24.27;18.60;;;13.70;99.90;;;;;;4968984;28;20463;-69
2023/05/16 11:11:52;;;;;;;22.23;17.73;;;13.40;99.90;;;;;;4973004;28;20447;-70
2023/05/16 11:14:33;;;;;;;25.87;18.27;;;13.40;99.90;;;;;;4974952;28;20963;-69
2023/05/16 11:17:13;;;;;;;23.13;17.83;;;13.30;99.90;;;;;;4968436;28;20965;-69
2023/05/16 11:19:45;;;;;;;19.23;15.77;;;13.30;99.90;;;;;;4976917;28;20545;-71
2023/05/16 11:22:31;;;;;;;20.77;15.80;;;13.20;99.90;;;;;;4972459;28;20439;-70
2023/05/16 11:25:01;;;;;;;19.53;15.93;;;13.20;99.90;;;;;;4957693;28;20438;-71
2023/05/16 11:27:30;;;;;;;18.63;14.17;;;13.20;99.90;;;;;;4971756;28;20498;-70
2023/05/16 11:30:10;;;;;;;23.63;20.90;;;13.20;99.90;;;;;;4970786;28;20463;-70
2023/05/16 11:32:37;;;;;;;18.80;15.63;;;12.90;99.90;;;;;;4970514;28;20477;-69
2023/05/16 11:35:05;;;;;;;15.93;13.20;;;12.90;99.90;;;;;;4967648;28;20452;-70
2023/05/16 11:37:31;;;;;;;19.20;13.93;;;12.80;99.90;;;;;;4975123;28;20463;-69
2023/05/16 11:40:01;;;;;;;16.37;13.00;;;12.70;99.90;;;;;;4979643;28;20462;-69
2023/05/16 11:42:33;;;;;;;14.10;12.70;;;12.50;99.90;;;;;;4971075;28;20591;-69
2023/05/16 11:45:11;;;;;;;15.30;13.33;;;12.40;99.90;;;;;;4976758;28;20442;-70
2023/05/16 11:47:41;;;;;;;14.20;12.60;;;12.50;99.90;;;;;;4972631;28;20462;-70
2023/05/16 11:50:15;;;;;;;14.23;11.87;;;12.50;99.90;;;;;;4973032;28;20455;-70
2023/05/16 11:52:55;;;;;;;13.73;12.13;;;12.50;99.90;;;;;;4973933;28;20453;-70
2023/05/16 11:55:23;;;;;;;14.97;12.23;;;12.60;99.90;;;;;;4982165;28;20446;-70
2023/05/16 11:57:50;;;;;;;13.83;11.30;;;12.60;99.90;;;;;;4982442;28;20468;-70
2023/05/16 12:00:21;;;;;;;12.50;10.77;;;12.60;99.90;;;;;;4983533;28;21110;-70
2023/05/16 12:02:48;;;;;;;15.33;12.33;;;12.60;99.90;;;;;;4973363;28;20450;-70
2023/05/16 12:05:15;;;;;;;13.80;11.10;;;12.70;99.90;;;;;;4971057;28;20932;-70
2023/05/16 12:07:43;;;;;;;12.27;10.97;;;12.70;99.90;;;;;;4971393;28;20807;-70
2023/05/16 12:10:11;;;;;;;14.57;10.17;;;12.70;99.90;;;;;;4973854;28;20461;-70
2023/05/16 12:12:40;;;;;;;11.50;10.30;;;12.70;99.90;;;;;;4980888;28;20539;-70
2023/05/16 12:15:07;;;;;;;14.07;11.40;;;12.70;99.90;;;;;;4989473;28;20472;-70
2023/05/16 12:17:34;;;;;;;12.13;10.93;;;12.80;99.90;;;;;;4968959;28;20498;-71
2023/05/16 12:20:01;;;;;;;13.50;11.00;;;12.90;99.90;;;;;;4979506;28;20510;-70
2023/05/16 12:22:26;;;;;;;15.83;12.77;;;12.90;99.90;;;;;;4970784;28;20530;-70
2023/05/16 12:24:52;;;;;;;12.73;11.43;;;12.90;99.90;;;;;;4975322;28;20852;-70
2023/05/16 12:27:22;;;;;;;11.37;10.17;;;12.90;99.90;;;;;;4970251;28;20184;-70
2023/05/16 12:29:48;;;;;;;12.53;10.77;;;12.90;99.90;;;;;;4971888;28;20204;-67